sensor_id;sensor_type;location;lat;lon;timestamp;P1;durP1;ratioP1;P2;durP2;ratioP2
60714;SDS011;46564;53.096;8.246;2022-08-21T00:02:59;8.93;;;3.08;;
60714;SDS011;46564;53.096;8.246;2022-08-21T00:08:05;8.45;;;2.97;;
60714;SDS011;46564;53.096;8.246;2022-08-21T00:13:07;10.02;;;2.78;;
60714;SDS011;46564;53.096;8.246;2022-08-21T00:18:10;7.60;;;2.65;;
60714;SDS011;46564;53.096;8.246;2022-08-21T00:23:12;8.88;;;2.22;;
60714;SDS011;46564;53.096;8.246;2022-08-21T00:28:14;5.82;;;2.50;;
60714;SDS011;46564;53.096;8.246;2022-08-21T00:33:16;12.52;;;2.85;;
60714;SDS011;46564;53.096;8.246;2022-08-21T00:38:17;10.35;;;2.97;;
60714;SDS011;46564;53.096;8.246;2022-08-21T00:43:22;10.25;;;4.45;;
60714;SDS011;46564;53.096;8.246;2022-08-21T00:48:28;9.50;;;2.92;;
60714;SDS011;46564;53.096;8.246;2022-08-21T00:53:30;8.40;;;2.90;;
60714;SDS011;46564;53.096;8.246;2022-08-21T00:58:32;8.15;;;3.20;;
60714;SDS011;46564;53.096;8.246;2022-08-21T01:03:38;9.10;;;3.15;;
60714;SDS011;46564;53.096;8.246;2022-08-21T01:08:45;7.20;;;3.03;;
60714;SDS011;46564;53.096;8.246;2022-08-21T01:13:47;7.10;;;2.40;;
60714;SDS011;46564;53.096;8.246;2022-08-21T01:18:50;9.02;;;2.97;;
60714;SDS011;46564;53.096;8.246;2022-08-21T01:23:53;10.20;;;2.95;;
60714;SDS011;46564;53.096;8.246;2022-08-21T01:28:59;6.97;;;2.90;;
60714;SDS011;46564;53.096;8.246;2022-08-21T01:34:08;12.95;;;3.03;;
60714;SDS011;46564;53.096;8.246;2022-08-21T01:39:10;6.13;;;2.35;;
60714;SDS011;46564;53.096;8.246;2022-08-21T01:44:13;9.70;;;2.92;;
60714;SDS011;46564;53.096;8.246;2022-08-21T01:49:14;11.00;;;2.95;;
60714;SDS011;46564;53.096;8.246;2022-08-21T01:54:16;6.35;;;2.35;;
60714;SDS011;46564;53.096;8.246;2022-08-21T01:59:18;6.45;;;2.80;;
60714;SDS011;46564;53.096;8.246;2022-08-21T02:04:22;6.55;;;2.70;;
60714;SDS011;46564;53.096;8.246;2022-08-21T02:09:24;9.85;;;2.75;;
60714;SDS011;46564;53.096;8.246;2022-08-21T02:14:26;6.78;;;2.58;;
60714;SDS011;46564;53.096;8.246;2022-08-21T02:19:33;6.63;;;2.30;;
60714;SDS011;46564;53.096;8.246;2022-08-21T02:24:40;10.05;;;2.90;;
60714;SDS011;46564;53.096;8.246;2022-08-21T02:29:56;4.47;;;2.20;;
60714;SDS011;46564;53.096;8.246;2022-08-21T02:34:58;6.07;;;2.20;;
60714;SDS011;46564;53.096;8.246;2022-08-21T02:40:00;6.28;;;2.42;;
60714;SDS011;46564;53.096;8.246;2022-08-21T02:45:03;7.78;;;2.70;;
60714;SDS011;46564;53.096;8.246;2022-08-21T02:50:05;7.95;;;3.13;;
60714;SDS011;46564;53.096;8.246;2022-08-21T02:55:08;8.23;;;2.70;;
60714;SDS011;46564;53.096;8.246;2022-08-21T03:00:10;6.55;;;2.63;;
60714;SDS011;46564;53.096;8.246;2022-08-21T03:05:13;15.95;;;3.42;;
60714;SDS011;46564;53.096;8.246;2022-08-21T03:10:16;5.25;;;2.80;;
60714;SDS011;46564;53.096;8.246;2022-08-21T03:15:19;5.30;;;2.65;;
60714;SDS011;46564;53.096;8.246;2022-08-21T03:20:24;9.88;;;2.80;;
60714;SDS011;46564;53.096;8.246;2022-08-21T03:25:29;10.63;;;2.78;;
60714;SDS011;46564;53.096;8.246;2022-08-21T03:30:41;5.47;;;2.45;;
60714;SDS011;46564;53.096;8.246;2022-08-21T03:35:45;9.88;;;3.10;;
60714;SDS011;46564;53.096;8.246;2022-08-21T03:40:59;12.23;;;3.22;;
60714;SDS011;46564;53.096;8.246;2022-08-21T03:46:02;7.43;;;3.08;;
60714;SDS011;46564;53.096;8.246;2022-08-21T03:51:05;9.35;;;3.05;;
60714;SDS011;46564;53.096;8.246;2022-08-21T03:56:07;7.63;;;2.85;;
60714;SDS011;46564;53.096;8.246;2022-08-21T04:01:09;7.65;;;2.80;;
60714;SDS011;46564;53.096;8.246;2022-08-21T04:06:10;10.57;;;3.05;;
60714;SDS011;46564;53.096;8.246;2022-08-21T04:11:12;9.00;;;3.13;;
60714;SDS011;46564;53.096;8.246;2022-08-21T04:16:16;8.02;;;3.20;;
60714;SDS011;46564;53.096;8.246;2022-08-21T04:21:17;13.65;;;3.95;;
60714;SDS011;46564;53.096;8.246;2022-08-21T04:26:24;9.32;;;3.28;;
60714;SDS011;46564;53.096;8.246;2022-08-21T04:31:26;8.43;;;3.60;;
60714;SDS011;46564;53.096;8.246;2022-08-21T04:36:29;8.70;;;3.63;;
60714;SDS011;46564;53.096;8.246;2022-08-21T04:41:32;12.52;;;3.90;;
60714;SDS011;46564;53.096;8.246;2022-08-21T04:46:34;7.93;;;3.63;;
60714;SDS011;46564;53.096;8.246;2022-08-21T04:51:36;12.20;;;4.70;;
60714;SDS011;46564;53.096;8.246;2022-08-21T04:56:41;11.40;;;4.22;;
60714;SDS011;46564;53.096;8.246;2022-08-21T05:01:46;7.95;;;4.57;;
60714;SDS011;46564;53.096;8.246;2022-08-21T05:06:48;11.25;;;5.03;;
60714;SDS011;46564;53.096;8.246;2022-08-21T05:11:51;12.93;;;6.00;;
60714;SDS011;46564;53.096;8.246;2022-08-21T05:16:53;14.48;;;5.40;;
60714;SDS011;46564;53.096;8.246;2022-08-21T05:21:55;15.82;;;6.15;;
60714;SDS011;46564;53.096;8.246;2022-08-21T05:26:57;13.18;;;7.18;;
60714;SDS011;46564;53.096;8.246;2022-08-21T05:31:58;14.25;;;6.90;;
60714;SDS011;46564;53.096;8.246;2022-08-21T05:37:00;18.65;;;7.38;;
60714;SDS011;46564;53.096;8.246;2022-08-21T05:42:07;16.08;;;7.32;;
60714;SDS011;46564;53.096;8.246;2022-08-21T05:47:09;15.05;;;6.82;;
60714;SDS011;46564;53.096;8.246;2022-08-21T05:52:17;16.38;;;7.93;;
60714;SDS011;46564;53.096;8.246;2022-08-21T05:57:20;15.68;;;7.60;;
60714;SDS011;46564;53.096;8.246;2022-08-21T06:02:22;15.55;;;8.02;;
60714;SDS011;46564;53.096;8.246;2022-08-21T06:07:24;14.55;;;7.25;;
60714;SDS011;46564;53.096;8.246;2022-08-21T06:12:25;19.58;;;8.20;;
60714;SDS011;46564;53.096;8.246;2022-08-21T06:17:27;16.50;;;8.15;;
60714;SDS011;46564;53.096;8.246;2022-08-21T06:22:28;19.27;;;8.15;;
60714;SDS011;46564;53.096;8.246;2022-08-21T06:27:30;16.08;;;7.53;;
60714;SDS011;46564;53.096;8.246;2022-08-21T06:32:32;16.55;;;8.00;;
60714;SDS011;46564;53.096;8.246;2022-08-21T06:37:34;16.02;;;7.50;;
60714;SDS011;46564;53.096;8.246;2022-08-21T06:42:35;14.88;;;6.40;;
60714;SDS011;46564;53.096;8.246;2022-08-21T06:47:37;19.20;;;6.38;;
60714;SDS011;46564;53.096;8.246;2022-08-21T06:52:38;11.73;;;5.80;;
60714;SDS011;46564;53.096;8.246;2022-08-21T06:57:40;11.55;;;5.45;;
60714;SDS011;46564;53.096;8.246;2022-08-21T07:02:48;15.00;;;5.45;;
60714;SDS011;46564;53.096;8.246;2022-08-21T07:07:49;15.70;;;5.10;;
60714;SDS011;46564;53.096;8.246;2022-08-21T07:12:51;14.23;;;4.80;;
60714;SDS011;46564;53.096;8.246;2022-08-21T07:18:01;16.33;;;4.50;;
60714;SDS011;46564;53.096;8.246;2022-08-21T07:23:04;11.38;;;4.45;;
60714;SDS011;46564;53.096;8.246;2022-08-21T07:28:12;13.30;;;4.17;;
60714;SDS011;46564;53.096;8.246;2022-08-21T07:33:13;14.93;;;3.78;;
60714;SDS011;46564;53.096;8.246;2022-08-21T07:38:15;8.57;;;3.55;;
60714;SDS011;46564;53.096;8.246;2022-08-21T07:43:16;7.00;;;2.78;;
60714;SDS011;46564;53.096;8.246;2022-08-21T07:48:19;6.25;;;2.72;;
60714;SDS011;46564;53.096;8.246;2022-08-21T07:53:21;10.50;;;3.13;;
60714;SDS011;46564;53.096;8.246;2022-08-21T07:58:23;9.80;;;2.88;;
60714;SDS011;46564;53.096;8.246;2022-08-21T08:03:24;8.20;;;2.88;;
60714;SDS011;46564;53.096;8.246;2022-08-21T08:08:29;10.40;;;4.13;;
60714;SDS011;46564;53.096;8.246;2022-08-21T08:13:31;7.28;;;2.40;;
60714;SDS011;46564;53.096;8.246;2022-08-21T08:18:32;10.07;;;2.92;;
60714;SDS011;46564;53.096;8.246;2022-08-21T08:23:34;9.02;;;2.47;;
60714;SDS011;46564;53.096;8.246;2022-08-21T08:28:36;9.13;;;2.80;;
60714;SDS011;46564;53.096;8.246;2022-08-21T08:33:38;12.93;;;2.20;;
60714;SDS011;46564;53.096;8.246;2022-08-21T08:38:39;10.05;;;2.33;;
60714;SDS011;46564;53.096;8.246;2022-08-21T08:43:49;14.35;;;2.70;;
60714;SDS011;46564;53.096;8.246;2022-08-21T08:49:06;12.40;;;3.03;;
60714;SDS011;46564;53.096;8.246;2022-08-21T08:54:17;9.48;;;2.35;;
60714;SDS011;46564;53.096;8.246;2022-08-21T08:59:38;10.50;;;2.40;;
60714;SDS011;46564;53.096;8.246;2022-08-21T09:04:45;7.57;;;2.63;;
60714;SDS011;46564;53.096;8.246;2022-08-21T09:15:09;8.30;;;1.90;;
60714;SDS011;46564;53.096;8.246;2022-08-21T09:20:28;10.45;;;2.03;;
60714;SDS011;46564;53.096;8.246;2022-08-21T09:25:53;8.88;;;1.77;;
60714;SDS011;46564;53.096;8.246;2022-08-21T09:31:03;7.40;;;2.47;;
60714;SDS011;46564;53.096;8.246;2022-08-21T09:36:07;5.60;;;1.70;;
60714;SDS011;46564;53.096;8.246;2022-08-21T09:41:09;8.35;;;2.13;;
60714;SDS011;46564;53.096;8.246;2022-08-21T09:46:19;12.13;;;2.35;;
60714;SDS011;46564;53.096;8.246;2022-08-21T09:51:25;12.05;;;2.08;;
60714;SDS011;46564;53.096;8.246;2022-08-21T09:56:31;6.63;;;1.70;;
60714;SDS011;46564;53.096;8.246;2022-08-21T10:01:53;7.70;;;1.70;;
60714;SDS011;46564;53.096;8.246;2022-08-21T10:07:05;9.75;;;1.52;;
60714;SDS011;46564;53.096;8.246;2022-08-21T10:12:16;6.35;;;1.60;;
60714;SDS011;46564;53.096;8.246;2022-08-21T10:17:35;6.53;;;1.77;;
60714;SDS011;46564;53.096;8.246;2022-08-21T10:34:19;6.32;;;1.73;;
60714;SDS011;46564;53.096;8.246;2022-08-21T10:39:33;7.50;;;1.40;;
60714;SDS011;46564;53.096;8.246;2022-08-21T10:50:39;8.15;;;1.73;;
60714;SDS011;46564;53.096;8.246;2022-08-21T10:56:00;5.43;;;1.60;;
60714;SDS011;46564;53.096;8.246;2022-08-21T11:01:20;2.72;;;1.20;;
60714;SDS011;46564;53.096;8.246;2022-08-21T11:06:29;6.47;;;1.38;;
60714;SDS011;46564;53.096;8.246;2022-08-21T11:11:38;13.23;;;1.42;;
60714;SDS011;46564;53.096;8.246;2022-08-21T11:17:10;5.55;;;1.30;;
60714;SDS011;46564;53.096;8.246;2022-08-21T11:22:14;6.13;;;1.40;;
60714;SDS011;46564;53.096;8.246;2022-08-21T11:37:44;53.08;;;40.55;;
60714;SDS011;46564;53.096;8.246;2022-08-21T11:42:58;115.07;;;91.60;;
60714;SDS011;46564;53.096;8.246;2022-08-21T11:53:17;92.13;;;84.40;;
60714;SDS011;46564;53.096;8.246;2022-08-21T11:58:32;57.63;;;49.17;;
60714;SDS011;46564;53.096;8.246;2022-08-21T12:03:44;6.22;;;1.73;;
60714;SDS011;46564;53.096;8.246;2022-08-21T12:08:59;13.45;;;10.85;;
60714;SDS011;46564;53.096;8.246;2022-08-21T12:19:09;29.27;;;17.15;;
60714;SDS011;46564;53.096;8.246;2022-08-21T12:24:19;26.65;;;15.43;;
60714;SDS011;46564;53.096;8.246;2022-08-21T12:29:33;16.83;;;5.60;;
60714;SDS011;46564;53.096;8.246;2022-08-21T12:34:40;14.98;;;6.80;;
60714;SDS011;46564;53.096;8.246;2022-08-21T12:39:48;71.75;;;42.83;;
60714;SDS011;46564;53.096;8.246;2022-08-21T12:44:54;95.35;;;47.05;;
60714;SDS011;46564;53.096;8.246;2022-08-21T12:50:07;10.05;;;5.00;;
60714;SDS011;46564;53.096;8.246;2022-08-21T12:55:14;13.90;;;5.38;;
60714;SDS011;46564;53.096;8.246;2022-08-21T13:00:20;14.27;;;5.70;;
60714;SDS011;46564;53.096;8.246;2022-08-21T13:05:28;7.65;;;1.95;;
60714;SDS011;46564;53.096;8.246;2022-08-21T13:10:35;8.13;;;1.60;;
60714;SDS011;46564;53.096;8.246;2022-08-21T13:15:39;7.32;;;1.20;;
60714;SDS011;46564;53.096;8.246;2022-08-21T13:20:48;7.88;;;1.67;;
60714;SDS011;46564;53.096;8.246;2022-08-21T13:25:51;10.15;;;1.50;;
60714;SDS011;46564;53.096;8.246;2022-08-21T13:30:54;4.70;;;1.20;;
60714;SDS011;46564;53.096;8.246;2022-08-21T13:41:03;5.15;;;1.17;;
60714;SDS011;46564;53.096;8.246;2022-08-21T13:46:14;4.93;;;1.30;;
60714;SDS011;46564;53.096;8.246;2022-08-21T13:51:16;4.72;;;1.20;;
60714;SDS011;46564;53.096;8.246;2022-08-21T14:06:33;7.20;;;1.35;;
60714;SDS011;46564;53.096;8.246;2022-08-21T14:11:37;6.63;;;1.07;;
60714;SDS011;46564;53.096;8.246;2022-08-21T14:16:44;4.57;;;1.17;;
60714;SDS011;46564;53.096;8.246;2022-08-21T14:21:56;5.15;;;1.00;;
60714;SDS011;46564;53.096;8.246;2022-08-21T14:27:02;3.15;;;1.10;;
60714;SDS011;46564;53.096;8.246;2022-08-21T14:37:25;4.90;;;1.20;;
60714;SDS011;46564;53.096;8.246;2022-08-21T14:42:27;3.70;;;1.00;;
60714;SDS011;46564;53.096;8.246;2022-08-21T14:47:29;4.18;;;1.00;;
60714;SDS011;46564;53.096;8.246;2022-08-21T14:52:31;1.80;;;1.00;;
60714;SDS011;46564;53.096;8.246;2022-08-21T14:57:33;3.50;;;1.10;;
60714;SDS011;46564;53.096;8.246;2022-08-21T15:02:35;3.97;;;1.15;;
60714;SDS011;46564;53.096;8.246;2022-08-21T15:07:37;3.20;;;0.95;;
60714;SDS011;46564;53.096;8.246;2022-08-21T15:12:39;4.18;;;1.00;;
60714;SDS011;46564;53.096;8.246;2022-08-21T15:17:40;5.85;;;1.40;;
60714;SDS011;46564;53.096;8.246;2022-08-21T15:22:48;4.65;;;1.33;;
60714;SDS011;46564;53.096;8.246;2022-08-21T15:27:50;3.70;;;0.93;;
60714;SDS011;46564;53.096;8.246;2022-08-21T15:32:52;2.85;;;1.15;;
60714;SDS011;46564;53.096;8.246;2022-08-21T15:37:53;5.97;;;1.20;;
60714;SDS011;46564;53.096;8.246;2022-08-21T15:42:56;2.90;;;1.02;;
60714;SDS011;46564;53.096;8.246;2022-08-21T15:48:00;2.55;;;0.98;;
60714;SDS011;46564;53.096;8.246;2022-08-21T15:53:02;5.72;;;1.00;;
60714;SDS011;46564;53.096;8.246;2022-08-21T15:58:04;4.20;;;1.30;;
60714;SDS011;46564;53.096;8.246;2022-08-21T16:03:06;3.42;;;1.10;;
60714;SDS011;46564;53.096;8.246;2022-08-21T16:08:12;3.72;;;1.30;;
60714;SDS011;46564;53.096;8.246;2022-08-21T16:13:18;4.05;;;1.27;;
60714;SDS011;46564;53.096;8.246;2022-08-21T16:18:25;4.82;;;1.40;;
60714;SDS011;46564;53.096;8.246;2022-08-21T16:23:27;5.93;;;1.42;;
60714;SDS011;46564;53.096;8.246;2022-08-21T16:28:29;3.15;;;1.13;;
60714;SDS011;46564;53.096;8.246;2022-08-21T16:33:33;5.32;;;1.30;;
60714;SDS011;46564;53.096;8.246;2022-08-21T16:38:37;6.05;;;1.55;;
60714;SDS011;46564;53.096;8.246;2022-08-21T16:43:42;7.20;;;1.48;;
60714;SDS011;46564;53.096;8.246;2022-08-21T16:48:44;10.02;;;1.75;;
60714;SDS011;46564;53.096;8.246;2022-08-21T16:53:46;8.15;;;1.40;;
60714;SDS011;46564;53.096;8.246;2022-08-21T16:58:47;9.65;;;1.75;;
60714;SDS011;46564;53.096;8.246;2022-08-21T17:03:51;7.57;;;1.70;;
60714;SDS011;46564;53.096;8.246;2022-08-21T17:08:53;6.68;;;1.65;;
60714;SDS011;46564;53.096;8.246;2022-08-21T17:13:55;7.60;;;2.05;;
60714;SDS011;46564;53.096;8.246;2022-08-21T17:18:58;8.75;;;1.90;;
60714;SDS011;46564;53.096;8.246;2022-08-21T17:24:00;10.05;;;2.10;;
60714;SDS011;46564;53.096;8.246;2022-08-21T17:29:03;5.72;;;1.60;;
60714;SDS011;46564;53.096;8.246;2022-08-21T17:34:09;8.85;;;1.98;;
60714;SDS011;46564;53.096;8.246;2022-08-21T17:39:12;6.13;;;1.77;;
60714;SDS011;46564;53.096;8.246;2022-08-21T17:44:22;7.65;;;2.05;;
60714;SDS011;46564;53.096;8.246;2022-08-21T17:49:24;7.20;;;2.25;;
60714;SDS011;46564;53.096;8.246;2022-08-21T17:54:26;9.10;;;1.70;;
60714;SDS011;46564;53.096;8.246;2022-08-21T17:59:28;8.02;;;2.00;;
60714;SDS011;46564;53.096;8.246;2022-08-21T18:04:29;10.63;;;1.88;;
60714;SDS011;46564;53.096;8.246;2022-08-21T18:09:31;8.45;;;1.92;;
60714;SDS011;46564;53.096;8.246;2022-08-21T18:14:33;9.35;;;2.17;;
60714;SDS011;46564;53.096;8.246;2022-08-21T18:19:37;7.70;;;2.00;;
60714;SDS011;46564;53.096;8.246;2022-08-21T18:24:49;11.25;;;2.17;;
60714;SDS011;46564;53.096;8.246;2022-08-21T18:29:51;9.30;;;2.15;;
60714;SDS011;46564;53.096;8.246;2022-08-21T18:34:55;7.53;;;2.03;;
60714;SDS011;46564;53.096;8.246;2022-08-21T18:39:58;18.67;;;2.33;;
60714;SDS011;46564;53.096;8.246;2022-08-21T18:45:00;11.95;;;1.98;;
60714;SDS011;46564;53.096;8.246;2022-08-21T18:50:04;10.07;;;2.15;;
60714;SDS011;46564;53.096;8.246;2022-08-21T18:55:12;10.85;;;2.28;;
60714;SDS011;46564;53.096;8.246;2022-08-21T19:00:17;7.40;;;1.67;;
60714;SDS011;46564;53.096;8.246;2022-08-21T19:10:26;8.93;;;1.83;;
60714;SDS011;46564;53.096;8.246;2022-08-21T19:15:30;7.63;;;1.90;;
60714;SDS011;46564;53.096;8.246;2022-08-21T19:20:34;9.30;;;2.00;;
60714;SDS011;46564;53.096;8.246;2022-08-21T19:25:37;9.35;;;1.98;;
60714;SDS011;46564;53.096;8.246;2022-08-21T19:30:43;8.52;;;1.90;;
60714;SDS011;46564;53.096;8.246;2022-08-21T19:35:51;12.18;;;2.33;;
60714;SDS011;46564;53.096;8.246;2022-08-21T19:40:53;9.07;;;2.17;;
60714;SDS011;46564;53.096;8.246;2022-08-21T19:45:55;12.18;;;2.45;;
60714;SDS011;46564;53.096;8.246;2022-08-21T19:50:58;9.48;;;2.05;;
60714;SDS011;46564;53.096;8.246;2022-08-21T19:55:59;8.45;;;1.60;;
60714;SDS011;46564;53.096;8.246;2022-08-21T20:01:03;9.30;;;1.80;;
60714;SDS011;46564;53.096;8.246;2022-08-21T20:06:14;10.20;;;2.22;;
60714;SDS011;46564;53.096;8.246;2022-08-21T20:11:21;6.90;;;1.67;;
60714;SDS011;46564;53.096;8.246;2022-08-21T20:16:31;13.23;;;2.13;;
60714;SDS011;46564;53.096;8.246;2022-08-21T20:21:34;7.60;;;2.00;;
60714;SDS011;46564;53.096;8.246;2022-08-21T20:26:57;12.23;;;1.92;;
60714;SDS011;46564;53.096;8.246;2022-08-21T20:31:59;12.15;;;2.20;;
60714;SDS011;46564;53.096;8.246;2022-08-21T20:37:04;13.13;;;1.90;;
60714;SDS011;46564;53.096;8.246;2022-08-21T20:42:05;7.93;;;2.15;;
60714;SDS011;46564;53.096;8.246;2022-08-21T20:47:12;9.57;;;2.85;;
60714;SDS011;46564;53.096;8.246;2022-08-21T20:52:19;9.07;;;1.83;;
60714;SDS011;46564;53.096;8.246;2022-08-21T20:57:44;10.35;;;2.08;;
60714;SDS011;46564;53.096;8.246;2022-08-21T21:03:06;13.05;;;2.50;;
60714;SDS011;46564;53.096;8.246;2022-08-21T21:13:23;11.75;;;2.25;;
60714;SDS011;46564;53.096;8.246;2022-08-21T21:24:33;10.75;;;2.33;;
60714;SDS011;46564;53.096;8.246;2022-08-21T21:35:05;9.57;;;1.85;;
60714;SDS011;46564;53.096;8.246;2022-08-21T21:40:15;11.18;;;2.10;;
60714;SDS011;46564;53.096;8.246;2022-08-21T21:45:27;9.18;;;1.92;;
60714;SDS011;46564;53.096;8.246;2022-08-21T21:50:55;8.80;;;1.95;;
60714;SDS011;46564;53.096;8.246;2022-08-21T21:56:10;7.90;;;1.83;;
60714;SDS011;46564;53.096;8.246;2022-08-21T22:01:20;12.20;;;2.00;;
60714;SDS011;46564;53.096;8.246;2022-08-21T22:06:47;7.67;;;1.87;;
60714;SDS011;46564;53.096;8.246;2022-08-21T22:11:57;13.32;;;2.10;;
60714;SDS011;46564;53.096;8.246;2022-08-21T22:17:24;9.15;;;1.98;;
60714;SDS011;46564;53.096;8.246;2022-08-21T22:22:36;10.45;;;2.10;;
60714;SDS011;46564;53.096;8.246;2022-08-21T22:27:40;9.52;;;2.20;;
60714;SDS011;46564;53.096;8.246;2022-08-21T22:32:45;9.85;;;1.80;;
60714;SDS011;46564;53.096;8.246;2022-08-21T22:43:20;9.43;;;2.08;;
60714;SDS011;46564;53.096;8.246;2022-08-21T22:48:29;12.88;;;2.38;;
60714;SDS011;46564;53.096;8.246;2022-08-21T22:53:35;11.63;;;2.13;;
60714;SDS011;46564;53.096;8.246;2022-08-21T22:58:54;11.65;;;2.80;;
60714;SDS011;46564;53.096;8.246;2022-08-21T23:03:58;11.60;;;2.83;;
60714;SDS011;46564;53.096;8.246;2022-08-21T23:09:20;10.48;;;2.40;;
60714;SDS011;46564;53.096;8.246;2022-08-21T23:14:28;9.98;;;2.38;;
60714;SDS011;46564;53.096;8.246;2022-08-21T23:19:39;8.65;;;2.17;;
60714;SDS011;46564;53.096;8.246;2022-08-21T23:30:11;15.45;;;2.28;;
60714;SDS011;46564;53.096;8.246;2022-08-21T23:35:28;10.23;;;2.30;;
60714;SDS011;46564;53.096;8.246;2022-08-21T23:40:55;13.48;;;2.00;;
60714;SDS011;46564;53.096;8.246;2022-08-21T23:46:27;10.73;;;2.00;;
60714;SDS011;46564;53.096;8.246;2022-08-21T23:51:37;9.32;;;2.10;;
